Jackson Township, Pennsylvania
Current Conditions -  °F | °C
As of 10:54 PM on Saturday 25 Oct 2014 (Local Time) from KAVP Reporting Station
Overcast Overcast  
Wind Chill: 60°   Ceiling: 9000
Heat Index: 60°   Visibility: 10mi
Dew Point: 47°   Wind: 9mph
Humidity: 62%   Direction: 330°NNW
Pressure: 29.61"   Gusts: NA
Location:  41.2938°N, 75.9861°W
Report Text: KAVP 260254Z 33008KT 10SM FEW060 BKN090 OVC100 16/08 A2961 RMK AO2 RAB11E39 SLP024 P0000 60000 T01560083 55000
Loading
Personal Weather Stations






























Interactive Weather Map
Tropical Storm Tracking
New forecast layout! Learn more

10-Day Weather Forecast

Advertisements
Track Severe Weather on mobile